Time;durP1;ratioP1;P1;durP2;ratioP2;P2;SDS_P1;SDS_P2;PMS_P1;PMS_P2;Temp;Humidity;BMP_temperature;BMP_pressure;BME280_temperature;BME280_humidity;BME280_pressure;Samples;Min_cycle;Max_cycle;Signal;HPM_P1;HPM_P2
2022/04/07 00:00:06;;;;;;;5.13;2.72;;;9.70;99.90;;;;;;20911767;28;20041;-76
2022/04/07 00:10:07;;;;;;;2.75;1.50;;;9.70;99.90;;;;;;20937837;28;20037;-78
2022/04/07 00:20:08;;;;;;;3.73;1.70;;;9.50;99.90;;;;;;20930138;28;20039;-77
2022/04/07 00:30:13;;;;;;;3.37;1.40;;;9.20;99.90;;;;;;20907580;28;20091;-77
2022/04/07 00:40:14;;;;;;;2.05;1.10;;;9.10;99.90;;;;;;20932060;28;20036;-77
2022/04/07 00:50:18;;;;;;;2.33;1.35;;;8.90;99.90;;;;;;20905301;28;20128;-78
2022/04/07 01:00:18;;;;;;;5.13;1.35;;;8.90;99.90;;;;;;20906136;28;20039;-78
2022/04/07 01:10:20;;;;;;;4.93;1.83;;;8.90;99.90;;;;;;20926365;28;20052;-78
2022/04/07 01:20:21;;;;;;;10.55;3.75;;;8.80;99.90;;;;;;20926496;28;20029;-77
2022/04/07 01:30:22;;;;;;;7.57;3.43;;;8.80;99.90;;;;;;20925245;28;20033;-78
2022/04/07 01:40:28;;;;;;;5.45;2.33;;;8.80;99.90;;;;;;20921880;28;20036;-78
2022/04/07 01:50:31;;;;;;;3.05;1.98;;;8.80;99.90;;;;;;20921368;28;20064;-77
2022/04/07 02:00:32;;;;;;;7.75;2.83;;;8.90;99.90;;;;;;20924168;28;20059;-76
2022/04/07 02:10:33;;;;;;;5.13;1.37;;;8.80;99.90;;;;;;20926563;28;20033;-78
2022/04/07 02:20:33;;;;;;;3.23;2.03;;;8.90;99.90;;;;;;20919856;28;20437;-78
2022/04/07 02:30:34;;;;;;;3.00;0.70;;;9.00;99.90;;;;;;20927994;28;20063;-78
2022/04/07 02:40:35;;;;;;;1.23;0.93;;;9.10;99.90;;;;;;20920621;28;20133;-77
2022/04/07 02:50:36;;;;;;;1.10;0.90;;;9.30;99.90;;;;;;20919536;28;20112;-78
2022/04/07 03:00:37;;;;;;;2.27;1.37;;;9.30;99.90;;;;;;20922165;28;20095;-78
2022/04/07 03:10:38;;;;;;;2.43;1.47;;;9.30;99.90;;;;;;20906818;28;20029;-78
2022/04/07 03:20:38;;;;;;;2.57;1.20;;;9.40;99.90;;;;;;20915844;28;20032;-76
2022/04/07 03:30:39;;;;;;;0.83;0.50;;;9.40;99.90;;;;;;20890158;28;20057;-76
2022/04/07 03:40:40;;;;;;;0.83;0.73;;;9.30;99.90;;;;;;20990010;28;20033;-76
2022/04/07 03:50:41;;;;;;;2.20;0.70;;;9.30;99.90;;;;;;20989901;28;20028;-77
2022/04/07 04:00:42;;;;;;;1.83;0.80;;;9.30;99.90;;;;;;21008888;22;20043;-73
2022/04/07 04:10:43;;;;;;;2.40;0.47;;;9.30;99.90;;;;;;20979174;28;20033;-73
2022/04/07 04:20:44;;;;;;;1.10;0.50;;;9.30;99.90;;;;;;20989001;28;20035;-73
2022/04/07 04:30:45;;;;;;;2.53;0.90;;;9.30;99.90;;;;;;20987842;28;20490;-73
2022/04/07 04:40:46;;;;;;;1.00;0.70;;;9.30;99.90;;;;;;20989297;28;20552;-73
2022/04/07 04:50:47;;;;;;;1.67;0.73;;;9.30;99.90;;;;;;21000703;28;20052;-75
2022/04/07 05:00:47;;;;;;;19.70;8.87;;;9.30;99.90;;;;;;21001597;28;20109;-74
2022/04/07 05:10:48;;;;;;;0.70;0.60;;;9.30;99.90;;;;;;20983938;28;20032;-75
2022/04/07 05:20:49;;;;;;;2.60;0.50;;;9.40;99.90;;;;;;20929255;28;20033;-74
2022/04/07 05:30:50;;;;;;;0.70;0.40;;;9.50;99.90;;;;;;20964824;28;20048;-76
2022/04/07 05:40:51;;;;;;;7.50;1.20;;;9.60;99.90;;;;;;21001180;28;20124;-76
2022/04/07 05:50:51;;;;;;;5.53;2.03;;;9.60;99.90;;;;;;21002271;28;20107;-76
2022/04/07 06:00:53;;;;;;;2.33;1.30;;;9.80;99.90;;;;;;21000691;28;20426;-76
2022/04/07 06:10:54;;;;;;;2.00;0.60;;;9.80;99.90;;;;;;21005149;28;20040;-77
2022/04/07 06:20:55;;;;;;;0.57;0.50;;;10.00;99.90;;;;;;20985897;28;20032;-77
2022/04/07 06:30:56;;;;;;;1.73;0.73;;;10.20;99.90;;;;;;20987657;28;20032;-77
2022/04/07 06:40:57;;;;;;;0.67;0.40;;;10.60;99.90;;;;;;21000688;28;20020;-76
2022/04/07 06:50:58;;;;;;;;;;;10.90;99.90;;;;;;20960707;28;20047;-77
2022/04/07 07:00:59;;;;;;;1.13;0.70;;;11.20;99.90;;;;;;20957745;28;19912;-76
2022/04/07 07:11:00;;;;;;;0.30;0.30;;;11.00;99.90;;;;;;20988343;28;20283;-76
2022/04/07 07:21:01;;;;;;;0.50;0.30;;;10.90;99.90;;;;;;20988371;28;20055;-75
2022/04/07 07:31:01;;;;;;;0.10;0.10;;;11.10;99.90;;;;;;20969918;28;20056;-75
2022/04/07 07:41:02;;;;;;;0.60;0.40;;;11.10;99.90;;;;;;20987372;28;20044;-76
2022/04/07 07:51:03;;;;;;;5.43;2.70;;;11.10;99.90;;;;;;20968490;28;20127;-76
2022/04/07 08:01:04;;;;;;;0.40;0.40;;;11.30;99.90;;;;;;20927270;28;1179659;-76
2022/04/07 08:11:05;;;;;;;1.20;0.80;;;11.40;99.90;;;;;;20993872;28;20503;-75
2022/04/07 08:21:05;;;;;;;6.93;3.37;;;11.70;99.90;;;;;;20996318;28;20032;-75
2022/04/07 08:31:07;;;;;;;0.77;0.73;;;11.80;99.90;;;;;;21003849;28;20039;-75
2022/04/07 08:41:09;;;;;;;2.50;1.52;;;11.40;99.90;;;;;;21002881;28;20033;-75
2022/04/07 08:51:11;;;;;;;0.85;0.50;;;11.00;99.90;;;;;;20983958;28;20064;-76
2022/04/07 09:01:12;;;;;;;1.65;0.47;;;10.70;99.90;;;;;;21000568;28;20055;-76
2022/04/07 09:11:13;;;;;;;1.57;0.50;;;10.50;99.90;;;;;;20982883;28;20059;-76
2022/04/07 09:21:25;;;;;;;3.10;1.10;;;10.30;99.90;;;;;;21000324;28;20040;-76
2022/04/07 09:31:26;;;;;;;1.42;0.70;;;10.20;99.90;;;;;;21000257;28;20029;-76
2022/04/07 09:41:28;;;;;;;2.73;0.50;;;10.50;99.90;;;;;;20998900;28;20040;-75
2022/04/07 09:51:36;;;;;;;5.43;1.27;;;10.50;99.90;;;;;;20998058;28;20513;-76
2022/04/07 10:01:38;;;;;;;0.93;0.57;;;10.40;99.90;;;;;;21031406;22;20064;-77
2022/04/07 10:11:41;;;;;;;1.13;0.50;;;10.70;99.90;;;;;;21081822;28;20131;-76
2022/04/07 10:22:07;;;;;;;2.88;0.93;;;10.90;99.90;;;;;;21080561;28;20024;-77
2022/04/07 10:32:13;;;;;;;2.38;0.60;;;10.70;99.90;;;;;;21080918;28;20028;-77
2022/04/07 10:42:14;;;;;;;0.40;0.40;;;10.70;99.90;;;;;;21077617;28;20031;-77
2022/04/07 10:52:35;;;;;;;5.90;3.60;;;10.60;99.90;;;;;;21077770;28;20375;-77
2022/04/07 11:02:36;;;;;;;1.08;0.65;;;10.50;99.90;;;;;;21100850;28;20452;-77
2022/04/07 11:12:46;;;;;;;0.10;0.10;;;10.90;99.90;;;;;;21161624;28;20038;-77
2022/04/07 11:22:56;;;;;;;1.35;0.52;;;10.60;99.90;;;;;;21164259;28;20024;-77
2022/04/07 11:33:18;;;;;;;0.10;0.10;;;10.10;99.90;;;;;;21127895;28;20038;-77
2022/04/07 11:43:21;;;;;;;0.20;0.20;;;9.90;99.90;;;;;;21164794;28;20026;-77
2022/04/07 11:53:23;;;;;;;0.20;0.20;;;9.70;99.90;;;;;;21131608;28;20031;-77
2022/04/07 12:03:32;;;;;;;4.25;0.30;;;9.60;99.90;;;;;;21177246;28;20036;-77
2022/04/07 12:13:33;;;;;;;0.28;0.20;;;9.60;99.90;;;;;;21167103;28;20028;-76
2022/04/07 12:23:36;;;;;;;2.47;0.40;;;9.80;99.90;;;;;;21156692;28;20024;-76
2022/04/07 12:33:41;;;;;;;0.30;0.30;;;10.10;99.90;;;;;;21074100;28;20059;-76
2022/04/07 12:43:50;;;;;;;0.75;0.30;;;10.30;99.90;;;;;;21057628;28;20035;-77
2022/04/07 12:54:03;;;;;;;1.60;0.68;;;10.70;99.90;;;;;;21095680;28;20032;-76
2022/04/07 13:04:08;;;;;;;2.90;0.50;;;11.10;99.90;;;;;;21069518;28;20391;-76
2022/04/07 13:14:11;;;;;;;13.65;3.92;;;11.50;99.90;;;;;;21085738;28;20032;-76
2022/04/07 13:24:12;;;;;;;0.45;0.30;;;11.60;99.90;;;;;;21067317;28;20131;-76
2022/04/07 13:34:13;;;;;;;0.60;0.40;;;11.70;99.90;;;;;;21087630;28;20084;-76
2022/04/07 13:44:14;;;;;;;2.17;1.20;;;11.80;99.90;;;;;;21088202;28;20440;-76
2022/04/07 13:54:15;;;;;;;0.73;0.50;;;11.80;99.90;;;;;;21050310;28;20028;-76
2022/04/07 14:04:15;;;;;;;13.33;2.00;;;11.80;99.90;;;;;;21090432;28;20039;-75
2022/04/07 14:14:17;;;;;;;1.27;0.40;;;11.90;99.90;;;;;;21080539;28;20040;-76
2022/04/07 14:24:18;;;;;;;0.50;0.50;;;11.80;99.90;;;;;;21061918;28;20067;-75
2022/04/07 14:34:19;;;;;;;0.63;0.33;;;11.70;99.90;;;;;;21080577;28;20032;-75
2022/04/07 14:44:26;;;;;;;0.68;0.32;;;11.60;99.90;;;;;;20985894;28;20490;-75
2022/04/07 14:54:27;;;;;;;0.93;0.20;;;11.50;99.90;;;;;;20983352;28;20079;-74
2022/04/07 15:04:28;;;;;;;3.63;0.30;;;11.40;99.90;;;;;;20981057;28;20395;-76
2022/04/07 15:14:29;;;;;;;1.03;0.30;;;11.30;99.90;;;;;;20985322;28;20044;-77
2022/04/07 15:24:30;;;;;;;11.87;3.43;;;11.50;99.90;;;;;;20986306;28;20027;-76
2022/04/07 15:34:31;;;;;;;1.67;0.80;;;11.60;99.90;;;;;;20982460;28;20025;-76
2022/04/07 15:44:32;;;;;;;1.47;0.90;;;11.70;99.90;;;;;;20982156;28;20032;-77
2022/04/07 15:54:33;;;;;;;0.77;0.57;;;11.70;99.90;;;;;;20939214;28;20032;-75
2022/04/07 16:04:34;;;;;;;2.20;1.03;;;11.20;99.90;;;;;;20894712;23;20061;-77
2022/04/07 16:14:35;;;;;;;2.43;1.23;;;11.00;99.90;;;;;;20834812;28;20132;-77
2022/04/07 16:24:36;;;;;;;2.20;1.07;;;10.80;99.90;;;;;;20833958;28;20528;-77
2022/04/07 16:34:36;;;;;;;2.63;1.40;;;10.40;99.90;;;;;;20832237;28;20480;-77
2022/04/07 16:44:38;;;;;;;5.10;1.27;;;10.20;99.90;;;;;;20831270;28;20022;-77
2022/04/07 16:54:39;;;;;;;3.03;1.30;;;10.30;99.90;;;;;;20830935;28;20152;-76
2022/04/07 17:04:40;;;;;;;3.07;1.43;;;10.40;99.90;;;;;;20827394;28;20061;-76
2022/04/07 17:14:41;;;;;;;0.83;0.60;;;10.40;99.90;;;;;;20828548;28;20061;-76
2022/04/07 17:24:41;;;;;;;5.63;3.00;;;10.50;99.90;;;;;;20829395;28;20033;-77
2022/04/07 17:34:42;;;;;;;0.83;0.23;;;10.70;99.90;;;;;;20828988;28;20476;-76
2022/04/07 17:44:44;;;;;;;0.13;0.13;;;11.00;99.90;;;;;;20818908;28;20025;-76
2022/04/07 17:54:44;;;;;;;0.47;0.30;;;11.20;99.90;;;;;;20815565;28;20035;-76
2022/04/07 18:04:45;;;;;;;1.73;0.30;;;11.30;99.90;;;;;;20838463;28;20040;-76
2022/04/07 18:14:46;;;;;;;2.33;0.90;;;11.40;99.90;;;;;;20804795;28;20041;-77
2022/04/07 18:24:47;;;;;;;0.43;0.33;;;11.40;99.90;;;;;;20812560;28;20514;-77
2022/04/07 18:34:48;;;;;;;0.60;0.20;;;11.50;99.90;;;;;;20805719;28;20033;-76
2022/04/07 18:44:49;;;;;;;1.93;0.50;;;11.50;99.90;;;;;;20806648;28;20033;-76
2022/04/07 18:54:50;;;;;;;2.40;0.33;;;11.40;99.90;;;;;;20804437;28;20029;-76
2022/04/07 19:04:50;;;;;;;1.13;0.50;;;11.50;99.90;;;;;;20803763;28;20033;-76
2022/04/07 19:14:51;;;;;;;0.23;0.20;;;11.50;99.90;;;;;;20803746;28;20393;-76
2022/04/07 19:24:54;;;;;;;1.97;0.40;;;11.20;99.90;;;;;;20808184;28;20036;-76
2022/04/07 19:34:55;;;;;;;0.45;0.30;;;11.00;99.90;;;;;;20817646;28;20561;-77
2022/04/07 19:44:56;;;;;;;0.63;0.20;;;10.80;99.90;;;;;;20813994;28;20785;-74
2022/04/07 19:54:57;;;;;;;1.77;0.70;;;10.70;99.90;;;;;;20814341;28;20114;-75
2022/04/07 20:04:58;;;;;;;0.63;0.30;;;10.50;99.90;;;;;;20815418;28;20029;-77
2022/04/07 20:14:59;;;;;;;0.47;0.40;;;10.20;99.90;;;;;;20829397;28;20116;-77
2022/04/07 20:25:00;;;;;;;1.27;0.40;;;9.90;99.90;;;;;;20824596;28;20064;-78
2022/04/07 20:35:01;;;;;;;4.37;0.60;;;9.50;99.90;;;;;;20824677;28;20065;-77
2022/04/07 20:45:01;;;;;;;0.97;0.30;;;9.50;99.90;;;;;;20841717;28;20072;-77
2022/04/07 20:55:03;;;;;;;4.33;0.50;;;9.40;99.90;;;;;;20837581;28;20033;-74
2022/04/07 21:05:05;;;;;;;2.40;0.60;;;9.40;99.90;;;;;;20819873;28;20458;-76
2022/04/07 21:15:07;;;;;;;0.90;0.63;;;9.40;99.90;;;;;;20811938;28;20033;-75
2022/04/07 21:25:09;;;;;;;2.63;1.00;;;9.40;99.90;;;;;;20817220;28;20056;-76
2022/04/07 21:35:09;;;;;;;2.22;1.17;;;9.20;99.90;;;;;;20822949;28;20037;-76
2022/04/07 21:45:10;;;;;;;1.27;0.77;;;9.20;99.90;;;;;;20826491;28;20441;-77
2022/04/07 21:55:13;;;;;;;3.23;1.10;;;9.20;99.90;;;;;;20828817;28;20041;-77
2022/04/07 22:05:14;;;;;;;6.95;1.40;;;9.30;99.90;;;;;;20837611;22;20041;-75
2022/04/07 22:15:14;;;;;;;3.57;1.00;;;9.30;99.90;;;;;;20826428;28;20112;-75
2022/04/07 22:25:16;;;;;;;0.93;0.90;;;9.30;99.90;;;;;;20826274;28;20052;-75
2022/04/07 22:35:19;;;;;;;3.13;0.98;;;9.40;99.90;;;;;;20827153;28;20033;-75
2022/04/07 22:45:20;;;;;;;2.55;0.80;;;9.30;99.90;;;;;;20825574;28;20044;-75
2022/04/07 22:55:21;;;;;;;0.90;0.53;;;9.40;99.90;;;;;;20824712;28;20033;-75
2022/04/07 23:05:22;;;;;;;2.23;0.70;;;9.30;99.90;;;;;;20839230;28;20079;-75
2022/04/07 23:15:24;;;;;;;3.20;0.87;;;9.20;99.90;;;;;;20840213;28;20113;-76
2022/04/07 23:25:25;;;;;;;2.20;0.90;;;9.10;99.90;;;;;;20838567;28;20048;-76
2022/04/07 23:35:25;;;;;;;0.73;0.70;;;9.10;99.90;;;;;;20838310;28;20061;-76
2022/04/07 23:45:27;;;;;;;2.60;0.63;;;9.00;99.90;;;;;;20836553;28;20037;-75
2022/04/07 23:55:28;;;;;;;3.17;0.70;;;9.00;99.90;;;;;;20837155;28;20032;-76
